Pedreira, Brazil
Current Conditions -  °F | °C
As of 2:00 PM on Thursday 27 Nov 2014 (Local Time) from SBKP Reporting Station
Broken Clouds Broken Clouds  
Wind Chill: 81°   Ceiling: 2800
Heat Index: 83°   Visibility: 6mi
Dew Point: 66°   Wind: 7mph
Humidity: 61%   Direction: 220°SW
Pressure: 29.94"   Gusts: NA
Location:  22.74°S, 46.9°W
Report Text: SBKP 271600Z 22006KT 9999 BKN028 BKN070 27/19 Q1014
Loading
Personal Weather Stations






























Interactive Weather Map New forecast layout! Learn more

10-Day Weather Forecast

Advertisements
Track Severe Weather on mobile